Time;durP1;ratioP1;P1;durP2;ratioP2;P2;SDS_P1;SDS_P2;PMS_P1;PMS_P2;Temp;Humidity;BMP_temperature;BMP_pressure;BME280_temperature;BME280_humidity;BME280_pressure;Samples;Min_cycle;Max_cycle;Signal;HPM_P1;HPM_P2
2021/03/30 00:02:04;;;;;;;11.12;5.87;;;;;;;12.86;57.29;101817.89;1737497;82;21134;-78
2021/03/30 00:04:30;;;;;;;15.53;6.42;;;;;;;12.82;57.29;101816.02;1743117;81;21143;-77
2021/03/30 00:06:56;;;;;;;13.68;6.17;;;;;;;12.76;57.31;101817.11;1758834;81;21152;-77
2021/03/30 00:09:22;;;;;;;16.80;6.35;;;;;;;12.72;57.33;101825.09;1746734;82;21255;-77
2021/03/30 00:11:49;;;;;;;14.80;5.80;;;;;;;12.68;57.33;101814.33;1741249;82;21607;-77
2021/03/30 00:14:17;;;;;;;15.15;6.37;;;;;;;12.63;57.35;101817.96;1741057;82;21166;-78
2021/03/30 00:16:43;;;;;;;13.88;6.00;;;;;;;12.52;57.40;101824.35;1741174;82;21298;-77
2021/03/30 00:19:09;;;;;;;13.08;6.20;;;;;;;12.42;57.48;101823.03;1741204;82;21615;-77
2021/03/30 00:21:36;;;;;;;16.87;7.60;;;;;;;12.39;57.52;101824.67;1740015;82;21196;-78
2021/03/30 00:24:02;;;;;;;22.20;7.47;;;;;;;12.35;57.57;101826.47;1751567;81;21157;-77
2021/03/30 00:26:34;;;;;;;17.02;7.65;;;;;;;12.29;57.63;101827.88;1751714;81;21161;-77
2021/03/30 00:28:57;;;;;;;26.42;13.10;;;;;;;12.25;57.66;101829.64;1751054;81;21654;-78
2021/03/30 00:31:23;;;;;;;24.98;15.45;;;;;;;12.19;57.72;101823.05;1751675;81;21166;-78
2021/03/30 00:33:49;;;;;;;30.40;20.32;;;;;;;12.13;57.77;101828.99;1751825;81;21255;-78
2021/03/30 00:36:16;;;;;;;32.13;19.37;;;;;;;12.08;57.87;101829.91;1751757;81;21145;-78
2021/03/30 00:38:42;;;;;;;29.18;19.00;;;;;;;12.05;57.91;101835.55;1751859;81;21145;-78
2021/03/30 00:41:08;;;;;;;23.42;13.80;;;;;;;11.99;57.97;101838.31;1751761;81;21146;-78
2021/03/30 00:43:34;;;;;;;24.12;12.00;;;;;;;11.94;58.02;101840.56;1751736;81;21156;-78
2021/03/30 00:46:01;;;;;;;27.82;12.70;;;;;;;11.88;58.11;101839.81;1751618;81;22087;-78
2021/03/30 00:48:27;;;;;;;16.95;8.83;;;;;;;11.85;58.18;101840.59;1751622;81;21145;-78
2021/03/30 00:50:54;;;;;;;21.55;8.08;;;;;;;11.85;58.26;101844.59;1751789;81;21150;-78
2021/03/30 00:53:20;;;;;;;20.32;9.48;;;;;;;11.87;58.31;101837.27;1751762;81;21562;-77
2021/03/30 00:55:46;;;;;;;21.25;8.70;;;;;;;11.90;58.36;101840.98;1751860;81;21606;-77
2021/03/30 00:58:13;;;;;;;22.77;9.30;;;;;;;11.92;58.41;101837.20;1753697;81;21247;-77
2021/03/30 01:00:39;;;;;;;17.48;8.38;;;;;;;11.93;58.46;101839.36;1758800;81;21149;-77
2021/03/30 01:03:05;;;;;;;35.70;14.05;;;;;;;11.94;58.51;101841.05;1758994;81;21160;-77
2021/03/30 01:05:31;;;;;;;25.85;10.50;;;;;;;11.95;58.52;101840.08;1758878;81;21243;-77
2021/03/30 01:08:28;;;;;;;28.73;15.13;;;;;;;11.96;58.57;101837.77;1759027;80;21146;-77
2021/03/30 01:11:17;;;;;;;33.18;20.00;;;;;;;11.98;58.61;101841.13;1760096;80;21193;-78
2021/03/30 01:14:10;;;;;;;30.70;24.55;;;;;;;11.96;58.64;101840.44;1761786;81;21629;-78
2021/03/30 01:16:47;;;;;;;24.98;16.48;;;;;;;11.93;58.69;101838.02;1743364;81;21233;-77
2021/03/30 01:20:01;;;;;;;22.17;10.45;;;;;;;11.91;58.72;101837.33;1761727;81;21147;-77
2021/03/30 01:22:57;;;;;;;20.25;8.95;;;;;;;11.88;58.75;101840.30;1773467;80;21664;-78
2021/03/30 01:25:37;;;;;;;17.75;8.00;;;;;;;11.88;58.79;101835.80;1815549;77;22716;-76
2021/03/30 01:28:29;;;;;;;28.27;9.20;;;;;;;11.75;58.83;101843.25;1788236;80;21112;-78
2021/03/30 01:30:55;;;;;;;21.20;10.50;;;;;;;11.70;58.87;101845.48;1756725;80;21184;-78
2021/03/30 01:33:25;;;;;;;24.80;13.03;;;;;;;11.65;58.94;101849.06;1757160;80;21667;-78
2021/03/30 01:35:53;;;;;;;29.60;11.70;;;;;;;11.62;58.97;101844.49;1788103;79;21147;-79
2021/03/30 01:38:19;;;;;;;19.15;8.95;;;;;;;11.59;59.01;101844.78;1788044;80;21131;-78
2021/03/30 01:40:45;;;;;;;23.38;11.43;;;;;;;11.57;59.07;101848.10;1787991;80;21164;-78
2021/03/30 01:43:11;;;;;;;26.12;12.53;;;;;;;11.55;59.12;101852.23;1787767;80;21204;-78
2021/03/30 01:45:38;;;;;;;25.70;13.50;;;;;;;11.52;59.16;101852.03;1787946;79;21120;-78
2021/03/30 01:48:05;;;;;;;31.87;19.00;;;;;;;11.48;59.23;101848.44;1782684;80;21260;-78
2021/03/30 01:50:31;;;;;;;38.95;23.75;;;;;;;11.44;59.26;101849.70;1756703;81;21167;-78
2021/03/30 01:52:57;;;;;;;39.95;24.57;;;;;;;11.40;59.32;101838.45;1749298;80;21131;-77
2021/03/30 01:55:23;;;;;;;32.38;19.30;;;;;;;11.39;59.37;101847.47;1728051;81;21191;-78
2021/03/30 01:57:56;;;;;;;22.75;10.72;;;;;;;11.33;59.39;101839.98;1726671;83;21138;-78
2021/03/30 02:00:25;;;;;;;21.70;9.18;;;;;;;11.29;59.46;101838.61;1735692;81;21596;-77
2021/03/30 02:02:53;;;;;;;17.25;10.13;;;;;;;11.25;59.54;101841.20;1725636;83;21147;-77
2021/03/30 02:05:20;;;;;;;29.65;11.78;;;;;;;11.21;59.59;101841.13;1724990;83;21151;-77
2021/03/30 02:07:46;;;;;;;23.27;10.48;;;;;;;11.18;59.65;101840.06;1751905;81;21213;-77
2021/03/30 02:10:17;;;;;;;23.52;9.75;;;;;;;11.15;59.73;101837.67;1749283;81;21162;-77
2021/03/30 02:12:44;;;;;;;18.57;9.10;;;;;;;11.15;59.77;101843.50;1741385;82;21708;-77
2021/03/30 02:15:13;;;;;;;17.52;8.05;;;;;;;11.14;59.83;101845.33;1751267;81;21181;-77
2021/03/30 02:18:08;;;;;;;16.85;7.90;;;;;;;11.15;59.88;101845.69;1751525;81;21128;-77
2021/03/30 02:20:39;;;;;;;18.70;9.63;;;;;;;11.17;59.95;101852.20;1732375;81;21231;-77
2021/03/30 02:23:16;;;;;;;22.07;10.93;;;;;;;11.15;60.01;101853.70;1748404;81;21143;-77
2021/03/30 02:25:43;;;;;;;37.05;21.62;;;;;;;11.14;60.05;101850.66;1741636;81;21568;-77
2021/03/30 02:28:13;;;;;;;35.55;24.02;;;;;;;11.11;60.09;101853.61;1733090;81;21147;-77
2021/03/30 02:30:39;;;;;;;46.92;29.70;;;;;;;11.10;60.15;101850.58;1744898;81;21151;-77
2021/03/30 02:33:06;;;;;;;45.23;29.50;;;;;;;11.07;60.21;101852.20;1739446;81;21292;-77
2021/03/30 02:35:33;;;;;;;26.57;15.00;;;;;;;11.06;60.25;101857.66;1749217;81;21135;-77
2021/03/30 02:37:59;;;;;;;28.23;13.18;;;;;;;11.05;60.30;101856.00;1679013;84;21191;-77
2021/03/30 02:40:26;;;;;;;23.07;11.12;;;;;;;11.03;60.34;101856.97;1677209;84;21609;-78
2021/03/30 02:42:52;;;;;;;20.62;10.68;;;;;;;11.01;60.38;101862.09;1666294;84;21124;-77
2021/03/30 02:45:25;;;;;;;23.18;10.88;;;;;;;10.98;60.43;101865.86;1661246;84;21664;-77
2021/03/30 02:47:51;;;;;;;22.42;11.55;;;;;;;10.95;60.45;101873.30;1658918;85;21184;-78
2021/03/30 02:50:20;;;;;;;18.37;11.68;;;;;;;10.90;60.51;101870.21;1658889;85;21169;-78
2021/03/30 02:52:47;;;;;;;23.65;11.88;;;;;;;10.86;60.56;101874.13;1659007;86;21179;-78
2021/03/30 02:55:13;;;;;;;24.92;12.65;;;;;;;10.79;60.60;101868.97;1658808;85;21176;-77
2021/03/30 02:57:40;;;;;;;30.10;13.28;;;;;;;10.74;60.65;101868.52;1658758;85;21223;-77
2021/03/30 03:00:12;;;;;;;29.23;12.73;;;;;;;10.71;60.70;101864.80;1658749;86;21208;-77
2021/03/30 03:02:39;;;;;;;25.65;12.73;;;;;;;10.69;60.74;101876.11;1689820;84;21194;-77
2021/03/30 03:05:08;;;;;;;29.80;19.32;;;;;;;10.67;60.79;101872.70;1700436;84;21211;-77
2021/03/30 03:07:34;;;;;;;38.23;25.70;;;;;;;10.65;60.84;101873.34;1707294;83;21180;-77
2021/03/30 03:10:01;;;;;;;27.82;20.30;;;;;;;10.61;60.89;101878.59;1673655;84;21313;-77
2021/03/30 03:12:29;;;;;;;25.48;14.20;;;;;;;10.57;60.96;101881.16;1688219;83;21239;-77
2021/03/30 03:14:55;;;;;;;25.70;11.08;;;;;;;10.49;61.02;101872.00;1710333;83;21588;-77
2021/03/30 03:17:22;;;;;;;21.17;10.80;;;;;;;10.45;61.09;101879.91;1684201;83;21188;-77
2021/03/30 03:19:48;;;;;;;18.82;10.20;;;;;;;10.40;61.15;101879.48;1710467;83;21170;-77
2021/03/30 03:22:14;;;;;;;21.42;9.70;;;;;;;10.37;61.25;101878.42;1710428;83;21468;-77
2021/03/30 03:24:40;;;;;;;17.57;8.03;;;;;;;10.38;61.31;101881.91;1711312;83;21186;-77
2021/03/30 03:27:07;;;;;;;23.98;10.68;;;;;;;10.35;61.40;101873.69;1713155;83;21177;-77
2021/03/30 03:29:33;;;;;;;28.25;9.98;;;;;;;10.36;61.48;101878.53;1705012;83;21997;-77
2021/03/30 03:31:59;;;;;;;22.80;9.13;;;;;;;10.37;61.54;101879.75;1713079;83;21130;-77
2021/03/30 03:34:26;;;;;;;18.40;7.80;;;;;;;10.37;61.62;101878.42;1713556;83;21214;-77
2021/03/30 03:36:52;;;;;;;26.17;9.18;;;;;;;10.39;61.67;101878.27;1710921;83;21178;-77
2021/03/30 03:39:19;;;;;;;21.27;9.05;;;;;;;10.34;61.73;101878.69;1713483;83;21166;-77
2021/03/30 03:41:45;;;;;;;25.35;14.15;;;;;;;10.32;61.82;101881.95;1713345;83;21189;-77
2021/03/30 03:44:12;;;;;;;36.85;21.42;;;;;;;10.31;61.90;101888.25;1713255;83;21145;-77
2021/03/30 03:46:38;;;;;;;39.38;23.45;;;;;;;10.32;61.95;101897.11;1713524;83;21126;-77
2021/03/30 03:49:05;;;;;;;46.20;30.75;;;;;;;10.32;62.03;101893.11;1713294;83;21197;-77
2021/03/30 03:51:40;;;;;;;39.75;25.62;;;;;;;10.33;62.08;101890.80;1713400;83;21251;-77
2021/03/30 03:54:19;;;;;;;41.15;17.77;;;;;;;10.39;62.14;101892.45;1845376;77;22140;-74
2021/03/30 03:56:47;;;;;;;30.72;17.23;;;;;;;10.37;62.17;101893.09;1794033;78;21596;-77
2021/03/30 03:59:26;;;;;;;23.90;12.60;;;;;;;10.39;62.20;101892.94;1764824;78;21242;-77
2021/03/30 04:02:17;;;;;;;21.23;12.35;;;;;;;10.40;62.22;101894.15;1802518;78;21918;-76
2021/03/30 04:05:10;;;;;;;23.32;12.15;;;;;;;10.38;62.24;101894.75;1821013;78;21135;-77
2021/03/30 04:07:53;;;;;;;17.62;9.05;;;;;;;10.35;62.29;101904.35;1761723;80;21182;-77
2021/03/30 04:10:22;;;;;;;21.15;8.93;;;;;;;10.32;62.32;101907.77;1824009;78;21151;-76
2021/03/30 04:12:48;;;;;;;23.42;9.43;;;;;;;10.27;62.36;101909.52;1822027;78;21190;-76
2021/03/30 04:15:20;;;;;;;19.85;8.43;;;;;;;10.23;62.40;101912.09;1821788;78;21238;-77
2021/03/30 04:17:47;;;;;;;16.75;8.03;;;;;;;10.19;62.43;101911.98;1803056;78;21170;-77
2021/03/30 04:20:15;;;;;;;19.05;7.90;;;;;;;10.16;62.46;101910.92;1812200;78;21106;-77
2021/03/30 04:22:46;;;;;;;15.55;7.62;;;;;;;10.15;62.49;101923.88;1794355;78;21162;-77
2021/03/30 04:25:11;;;;;;;27.35;16.52;;;;;;;10.12;62.50;101919.27;1762182;78;21198;-77
2021/03/30 04:27:37;;;;;;;38.05;29.37;;;;;;;10.08;62.55;101924.48;1793975;78;21183;-77
2021/03/30 04:30:05;;;;;;;40.20;26.75;;;;;;;10.02;62.59;101925.86;1818523;78;21525;-77
2021/03/30 04:32:31;;;;;;;29.63;16.27;;;;;;;9.95;62.63;101929.53;1813292;78;21139;-77
2021/03/30 04:34:57;;;;;;;22.95;12.65;;;;;;;9.87;62.70;101931.98;1809389;78;21146;-77
2021/03/30 04:37:24;;;;;;;23.00;11.25;;;;;;;9.85;62.73;101935.76;1798461;78;21444;-76
2021/03/30 04:39:50;;;;;;;17.65;10.15;;;;;;;9.81;62.79;101937.83;1806953;78;21163;-77
2021/03/30 04:42:16;;;;;;;22.13;10.18;;;;;;;9.79;62.85;101942.42;1817540;78;21146;-77
2021/03/30 04:44:42;;;;;;;29.95;11.38;;;;;;;9.81;62.95;101946.30;1791736;79;21127;-77
2021/03/30 04:47:08;;;;;;;26.87;10.75;;;;;;;9.82;63.02;101951.48;1801845;78;21535;-77
2021/03/30 04:49:35;;;;;;;25.40;12.70;;;;;;;9.85;63.13;101950.41;1852543;77;21183;-77
2021/03/30 04:52:01;;;;;;;25.88;13.38;;;;;;;9.93;63.23;101959.92;1826687;77;21596;-77
2021/03/30 04:54:27;;;;;;;35.98;17.32;;;;;;;9.98;63.34;101957.73;1787658;79;21179;-77
2021/03/30 04:56:54;;;;;;;42.05;18.20;;;;;;;10.01;63.39;101957.48;1788307;78;21160;-77
2021/03/30 04:59:21;;;;;;;37.10;15.93;;;;;;;10.09;63.46;101955.51;1755076;80;21609;-77
2021/03/30 05:01:48;;;;;;;27.60;18.30;;;;;;;10.35;63.58;101956.35;1766985;80;21656;-77
2021/03/30 05:04:14;;;;;;;30.52;20.35;;;;;;;10.78;63.60;101955.34;1759867;81;21581;-77
2021/03/30 05:06:40;;;;;;;33.05;20.97;;;;;;;11.16;63.44;101951.48;1759575;81;21194;-77
2021/03/30 05:09:07;;;;;;;29.27;12.65;;;;;;;11.37;63.29;101949.58;1808454;79;21168;-77
2021/03/30 05:11:33;;;;;;;26.90;14.18;;;;;;;11.39;63.13;101948.97;1811031;79;21202;-77
2021/03/30 05:14:00;;;;;;;30.17;13.60;;;;;;;11.37;63.06;101957.59;1786877;80;21169;-77
2021/03/30 05:16:26;;;;;;;22.75;11.38;;;;;;;11.32;63.07;101961.67;1785053;80;21144;-78
2021/03/30 05:18:53;;;;;;;27.25;12.07;;;;;;;11.34;63.00;101957.88;1787126;80;21617;-77
2021/03/30 05:21:19;;;;;;;35.55;16.25;;;;;;;11.28;62.97;101965.11;1785943;79;21159;-77
2021/03/30 05:23:45;;;;;;;31.42;16.07;;;;;;;11.38;62.98;101964.64;1783670;79;21172;-78
2021/03/30 05:26:11;;;;;;;38.48;18.48;;;;;;;11.79;62.96;101961.41;1785311;80;21395;-77
2021/03/30 05:28:38;;;;;;;29.63;14.53;;;;;;;12.09;62.70;101963.98;1783745;79;21159;-77
2021/03/30 05:31:04;;;;;;;27.05;13.20;;;;;;;12.41;62.49;101969.02;1783562;79;21575;-77
2021/03/30 05:33:30;;;;;;;22.37;11.25;;;;;;;12.84;62.27;101977.34;1785904;80;21153;-78
2021/03/30 05:35:56;;;;;;;23.62;10.80;;;;;;;13.13;61.90;101974.59;1782416;80;21196;-78
2021/03/30 05:38:23;;;;;;;19.52;12.03;;;;;;;13.40;61.63;101961.70;1782277;80;21257;-78
2021/03/30 05:40:50;;;;;;;25.82;14.58;;;;;;;13.48;61.13;101978.70;1782355;80;21132;-78
2021/03/30 05:43:17;;;;;;;26.45;18.27;;;;;;;13.44;60.76;101973.30;1783032;80;21155;-78
2021/03/30 05:45:43;;;;;;;29.15;18.12;;;;;;;13.40;60.63;101978.63;1785627;80;21611;-78
2021/03/30 05:48:12;;;;;;;33.73;21.82;;;;;;;13.03;60.67;101976.44;1786120;80;21551;-78
2021/03/30 05:50:38;;;;;;;24.85;13.72;;;;;;;12.59;60.74;101979.83;1783502;80;21252;-77
2021/03/30 05:53:09;;;;;;;25.37;11.15;;;;;;;12.24;60.78;101978.61;1785150;80;21586;-78
2021/03/30 05:55:37;;;;;;;27.20;11.55;;;;;;;12.17;60.75;101977.49;1777097;80;21129;-78
2021/03/30 05:58:05;;;;;;;21.65;11.08;;;;;;;12.23;60.72;101968.05;1777736;80;21109;-77
2021/03/30 06:00:42;;;;;;;19.67;11.45;;;;;;;12.43;60.70;101967.02;1777811;79;21165;-78
2021/03/30 06:03:22;;;;;;;19.55;8.88;;;;;;;12.58;60.60;101981.66;1803859;79;22218;-78
2021/03/30 06:05:53;;;;;;;17.12;7.87;;;;;;;12.81;60.60;101980.80;1809304;79;21612;-78
2021/03/30 06:08:23;;;;;;;23.12;8.75;;;;;;;13.09;60.46;101978.55;1758962;81;21580;-78
2021/03/30 06:10:53;;;;;;;;;;;;;;;13.23;60.36;101984.76;1812349;79;21577;-78
2021/03/30 06:13:57;;;;;;;14.35;7.75;;;;;;;13.25;60.30;102000.20;1809655;79;20248;-78
2021/03/30 06:16:34;;;;;;;17.30;8.88;;;;;;;13.25;60.21;101998.87;1759142;81;22063;-78
2021/03/30 06:19:09;;;;;;;16.52;9.13;;;;;;;13.40;60.06;102002.75;1809595;79;21184;-79
2021/03/30 06:21:45;;;;;;;20.57;13.32;;;;;;;13.50;59.91;102010.73;1762175;80;21141;-78
2021/03/30 06:24:26;;;;;;;21.07;13.35;;;;;;;13.48;59.75;102009.53;1819600;78;21211;-78
2021/03/30 06:27:07;;;;;;;22.85;18.40;;;;;;;13.36;59.67;102008.55;1759030;81;21162;-78
2021/03/30 06:29:38;;;;;;;20.97;16.02;;;;;;;13.31;59.56;102013.00;1746957;81;21577;-78
2021/03/30 06:32:09;;;;;;;27.62;18.07;;;;;;;13.38;59.42;102018.12;1775028;80;21155;-78
2021/03/30 06:34:38;;;;;;;31.75;16.73;;;;;;;13.67;59.29;102023.82;1790228;80;21153;-78
2021/03/30 06:37:30;;;;;;;38.65;21.42;;;;;;;13.81;59.10;102018.80;1790175;80;21187;-78
2021/03/30 06:40:06;;;;;;;51.30;25.95;;;;;;;13.77;58.97;102023.26;1790289;80;21143;-78
2021/03/30 06:42:50;;;;;;;48.50;22.75;;;;;;;13.73;58.87;102029.91;1774831;80;21204;-78
2021/03/30 06:45:21;;;;;;;51.60;25.45;;;;;;;13.72;58.83;102030.41;1780267;80;21167;-78
2021/03/30 06:47:57;;;;;;;47.15;20.95;;;;;;;13.66;58.73;102028.33;1758933;81;21207;-78
2021/03/30 06:50:35;;;;;;;27.20;13.32;;;;;;;13.71;58.65;102026.55;1744943;81;21195;-78
2021/03/30 06:53:20;;;;;;;19.73;10.40;;;;;;;13.79;58.56;102029.33;1761945;80;21152;-78
2021/03/30 06:55:52;;;;;;;17.42;9.15;;;;;;;14.05;58.46;102026.24;1784589;78;21299;-79
2021/03/30 06:58:18;;;;;;;24.63;9.40;;;;;;;14.22;58.32;102032.59;1755876;81;21155;-79
2021/03/30 07:00:45;;;;;;;18.65;7.97;;;;;;;14.19;58.16;102033.76;1755728;81;21146;-78
2021/03/30 07:03:14;;;;;;;16.87;7.92;;;;;;;14.24;58.09;102034.16;1756448;80;21195;-78
2021/03/30 07:05:45;;;;;;;16.70;8.15;;;;;;;14.34;57.98;102034.95;1753815;80;21132;-79
2021/03/30 07:08:14;;;;;;;16.67;7.62;;;;;;;14.44;57.87;102030.33;1780847;80;21317;-79
2021/03/30 07:10:47;;;;;;;16.67;7.50;;;;;;;14.61;57.79;102033.13;1781039;80;21185;-79
2021/03/30 07:13:16;;;;;;;17.98;8.18;;;;;;;14.74;57.63;102033.59;1780741;80;21633;-79
2021/03/30 07:15:42;;;;;;;15.45;7.20;;;;;;;14.81;57.53;102037.34;1781218;80;21136;-79
2021/03/30 07:18:36;;;;;;;14.00;7.72;;;;;;;14.80;57.37;102034.30;1741452;81;21604;-79
2021/03/30 07:21:22;;;;;;;16.27;7.95;;;;;;;14.91;57.33;102042.10;1759612;81;22054;-79
2021/03/30 07:23:58;;;;;;;16.52;7.65;;;;;;;15.12;57.26;102035.85;1762060;80;21200;-79
2021/03/30 07:26:31;;;;;;;12.45;7.17;;;;;;;15.28;57.13;102040.45;1784426;80;21135;-79
2021/03/30 07:29:08;;;;;;;26.77;11.30;;;;;;;15.24;56.99;102014.40;1792927;78;21175;-79
2021/03/30 07:32:09;;;;;;;13.38;8.25;;;;;;;15.53;56.93;102033.37;1817890;78;21187;-79
2021/03/30 07:34:52;;;;;;;20.95;8.43;;;;;;;15.65;56.89;102037.47;1752376;81;21544;-79
2021/03/30 07:37:55;;;;;;;18.17;9.38;;;;;;;15.79;56.85;102036.84;1752338;81;21163;-79
2021/03/30 07:40:22;;;;;;;15.72;9.78;;;;;;;15.94;56.71;102040.56;1786331;80;21152;-79
2021/03/30 07:42:49;;;;;;;16.27;9.25;;;;;;;16.01;56.60;102030.81;1819204;78;21124;-80
2021/03/30 07:45:18;;;;;;;27.82;13.90;;;;;;;16.11;56.58;102031.53;1786815;80;21204;-80
2021/03/30 07:47:44;;;;;;;17.23;9.50;;;;;;;16.25;56.59;102030.88;1789197;78;21505;-80
2021/03/30 07:50:11;;;;;;;12.23;7.80;;;;;;;16.39;56.49;102038.80;1764959;80;21194;-80
2021/03/30 07:52:41;;;;;;;17.50;8.93;;;;;;;16.46;56.38;102039.81;1793547;78;21175;-80
2021/03/30 07:55:27;;;;;;;13.35;7.25;;;;;;;16.59;56.38;102034.78;1790051;79;21151;-80
2021/03/30 08:00:52;;;;;;;21.15;10.50;;;;;;;16.82;56.25;102034.41;1812000;77;22780;-80
2021/03/30 08:03:27;;;;;;;15.88;8.53;;;;;;;16.89;56.28;102035.91;1804754;78;21112;-80
2021/03/30 08:06:11;;;;;;;19.92;8.03;;;;;;;17.06;56.23;102041.62;1709025;81;21299;-81
2021/03/30 08:08:57;;;;;;;13.68;8.65;;;;;;;17.15;56.10;102040.59;1765483;79;21675;-81
2021/03/30 08:11:54;;;;;;;17.80;9.75;;;;;;;17.14;55.94;102041.59;1783740;79;21163;-81
2021/03/30 08:14:38;;;;;;;16.57;8.18;;;;;;;17.15;55.92;102047.83;1785302;79;21148;-80
2021/03/30 08:17:08;;;;;;;15.88;8.15;;;;;;;17.14;55.85;102046.98;1777376;79;21172;-80
2021/03/30 08:19:34;;;;;;;12.18;8.00;;;;;;;17.13;55.82;102046.67;1764297;80;21300;-80
2021/03/30 08:22:08;;;;;;;12.37;7.50;;;;;;;17.16;55.79;102046.31;1770166;79;21230;-80
2021/03/30 08:24:52;;;;;;;11.75;7.22;;;;;;;17.17;55.73;102045.28;1777858;79;21215;-81
2021/03/30 08:27:36;;;;;;;13.83;7.97;;;;;;;17.13;55.62;102043.97;1773832;79;21182;-81
2021/03/30 08:30:14;;;;;;;12.85;8.03;;;;;;;17.14;55.54;102052.38;1774027;79;21202;-81
2021/03/30 08:32:46;;;;;;;16.73;8.80;;;;;;;17.18;55.56;102051.02;1770633;78;21632;-81
2021/03/30 08:35:36;;;;;;;17.67;8.93;;;;;;;17.29;55.54;102053.35;1835172;78;21505;-81
2021/03/30 08:38:40;;;;;;;21.75;10.50;;;;;;;17.43;55.42;102053.13;1851339;76;22462;-81
2021/03/30 08:41:07;;;;;;;23.35;12.45;;;;;;;17.41;55.40;102054.67;1785336;80;21635;-81
2021/03/30 08:43:33;;;;;;;22.20;11.22;;;;;;;17.48;55.40;102054.81;1803333;78;22122;-81
2021/03/30 08:46:13;;;;;;;23.12;11.57;;;;;;;17.55;55.40;102054.95;1776533;80;21688;-81
2021/03/30 08:48:47;;;;;;;;;;;;;;;17.54;55.37;102058.66;1699870;83;21154;-81
2021/03/30 08:51:15;;;;;;;16.87;11.18;;;;;;;17.49;55.32;102057.82;1720010;81;20312;-81
2021/03/30 08:53:41;;;;;;;16.15;10.28;;;;;;;17.57;55.33;102051.59;1757380;80;21184;-81
2021/03/30 08:58:48;;;;;;;25.27;12.78;;;;;;;17.81;55.28;102054.17;1815139;77;22594;-81
2021/03/30 09:01:14;;;;;;;21.50;12.75;;;;;;;17.82;55.20;102050.46;1787967;80;21021;-81
2021/03/30 09:03:41;;;;;;;22.58;12.00;;;;;;;17.90;55.14;102049.92;1786934;80;21253;-81
2021/03/30 09:06:34;;;;;;;17.92;10.58;;;;;;;17.99;55.13;102057.45;1787557;80;21480;-81
2021/03/30 09:09:00;;;;;;;19.30;11.38;;;;;;;17.94;55.11;102052.57;1796199;78;21136;-81
2021/03/30 09:11:27;;;;;;;23.42;12.10;;;;;;;17.94;55.13;102050.41;1780835;80;21555;-81
2021/03/30 09:14:04;;;;;;;20.35;12.00;;;;;;;18.06;55.14;102050.82;1756704;81;21107;-81
2021/03/30 09:16:31;;;;;;;19.98;11.48;;;;;;;18.04;55.03;102052.38;1769183;80;21264;-82
2021/03/30 09:19:29;;;;;;;16.10;10.50;;;;;;;17.94;54.97;102051.77;1787822;80;21138;-81
2021/03/30 09:22:02;;;;;;;25.27;14.50;;;;;;;18.06;55.01;102062.47;1787466;80;21139;-82
2021/03/30 09:24:52;;;;;;;19.50;11.55;;;;;;;18.30;55.01;102054.20;1787550;80;21175;-82
2021/03/30 09:27:13;;;;;;;21.55;11.50;;;;;;;18.38;54.94;102056.84;1786515;80;21143;-81
2021/03/30 09:29:39;;;;;;;17.42;11.20;;;;;;;18.40;54.77;102062.09;1762196;80;21148;-81
2021/03/30 09:32:08;;;;;;;27.45;14.25;;;;;;;18.30;54.66;102054.20;1756494;81;21223;-81
2021/03/30 09:34:39;;;;;;;21.80;11.50;;;;;;;18.21;54.61;102060.69;1730936;80;21126;-80
2021/03/30 09:37:05;;;;;;;19.67;12.33;;;;;;;18.16;54.48;102054.97;1787641;80;21148;-81
2021/03/30 09:39:34;;;;;;;31.23;15.13;;;;;;;18.23;54.49;102050.53;1785403;80;21626;-81
2021/03/30 09:42:00;;;;;;;27.50;14.98;;;;;;;18.30;54.42;102054.20;1772715;80;21224;-81
2021/03/30 09:44:26;;;;;;;22.13;14.47;;;;;;;18.34;54.31;102052.83;1775118;80;21189;-81
2021/03/30 09:46:55;;;;;;;22.87;13.25;;;;;;;18.45;54.27;102049.70;1787573;80;21139;-81
2021/03/30 09:49:24;;;;;;;24.63;12.73;;;;;;;18.55;54.13;102043.23;1730720;81;21140;-81
2021/03/30 09:51:52;;;;;;;25.32;13.38;;;;;;;18.52;54.01;102044.95;1727462;81;21159;-81
2021/03/30 09:54:26;;;;;;;26.90;13.18;;;;;;;18.50;53.81;102040.22;1756404;81;21192;-80
2021/03/30 09:57:04;;;;;;;18.52;10.30;;;;;;;18.54;53.80;102042.42;1756383;81;22023;-80
2021/03/30 09:59:31;;;;;;;16.20;11.43;;;;;;;18.56;53.75;102042.22;1756538;81;21124;-80
2021/03/30 10:01:59;;;;;;;24.27;11.12;;;;;;;18.55;53.67;102043.23;1729687;81;21170;-81
2021/03/30 10:04:25;;;;;;;23.45;13.70;;;;;;;18.51;53.66;102038.70;1726379;83;21162;-80
2021/03/30 10:06:52;;;;;;;21.73;10.70;;;;;;;18.53;53.55;102037.19;1726547;81;21300;-81
2021/03/30 10:09:18;;;;;;;31.30;16.52;;;;;;;18.56;53.55;102035.46;1725884;83;21594;-81
2021/03/30 10:11:47;;;;;;;21.95;14.25;;;;;;;18.60;53.44;102034.92;1725916;82;21123;-81
2021/03/30 10:14:25;;;;;;;19.50;12.63;;;;;;;18.68;53.36;102028.07;1726738;81;21163;-81
2021/03/30 10:16:55;;;;;;;26.15;13.65;;;;;;;18.66;53.17;102026.59;1749601;81;26733;-81
2021/03/30 10:19:22;;;;;;;25.23;11.95;;;;;;;18.71;53.00;102026.89;1739306;81;21140;-80
2021/03/30 10:21:54;;;;;;;37.30;22.22;;;;;;;18.62;52.72;102026.11;1755830;81;21158;-80
2021/03/30 10:24:20;;;;;;;28.98;14.70;;;;;;;18.59;52.62;102015.67;1731959;81;21195;-81
2021/03/30 10:27:05;;;;;;;44.10;20.08;;;;;;;18.57;52.50;102012.33;1674565;84;21635;-81
2021/03/30 10:29:39;;;;;;;34.18;16.65;;;;;;;18.62;52.39;102012.59;1673442;85;21152;-76
2021/03/30 10:32:16;;;;;;;18.48;11.48;;;;;;;18.65;52.20;102012.73;1673921;85;21204;-77
2021/03/30 10:34:42;;;;;;;19.50;10.18;;;;;;;18.59;52.05;102010.27;1681255;84;21212;-77
2021/03/30 10:37:12;;;;;;;15.75;9.10;;;;;;;18.69;51.93;102004.59;1702120;84;21208;-77
2021/03/30 10:39:43;;;;;;;28.80;13.22;;;;;;;18.74;51.81;101999.48;1681819;84;21148;-77
2021/03/30 10:42:11;;;;;;;15.50;10.50;;;;;;;18.78;51.74;102006.21;1673852;85;21815;-77
2021/03/30 10:44:46;;;;;;;17.02;10.20;;;;;;;18.75;51.61;102000.64;1673841;85;21222;-77
2021/03/30 10:47:24;;;;;;;17.30;10.13;;;;;;;18.74;51.46;102002.19;1673751;85;21224;-77
2021/03/30 10:49:54;;;;;;;17.60;10.05;;;;;;;18.72;51.37;101994.76;1673923;85;21256;-77
2021/03/30 10:52:23;;;;;;;21.82;11.10;;;;;;;18.79;51.30;101991.65;1700417;84;21616;-77
2021/03/30 10:54:52;;;;;;;21.17;10.88;;;;;;;18.86;51.18;101984.48;1679760;84;21159;-77
2021/03/30 10:57:22;;;;;;;19.32;11.05;;;;;;;18.90;51.03;101981.73;1708794;83;21206;-77
2021/03/30 10:59:48;;;;;;;17.02;10.82;;;;;;;18.92;50.91;101979.70;1696194;83;21180;-77
2021/03/30 11:02:15;;;;;;;18.98;9.73;;;;;;;18.91;50.73;101980.72;1718990;83;21589;-77
2021/03/30 11:04:42;;;;;;;15.03;9.20;;;;;;;18.92;50.58;101974.30;1718928;83;21164;-77
2021/03/30 11:07:09;;;;;;;26.48;13.60;;;;;;;18.96;50.52;101976.95;1718796;83;22044;-77
2021/03/30 11:09:35;;;;;;;22.10;10.28;;;;;;;18.99;50.35;101975.23;1718901;83;21164;-78
2021/03/30 11:12:02;;;;;;;16.52;9.35;;;;;;;19.02;50.22;101970.80;1718715;83;21184;-77
2021/03/30 11:14:29;;;;;;;15.40;9.35;;;;;;;18.96;49.82;101966.14;1711301;83;21151;-77
2021/03/30 11:16:55;;;;;;;21.87;11.05;;;;;;;18.93;49.75;101964.63;1691779;84;21163;-77
2021/03/30 11:19:23;;;;;;;18.90;9.35;;;;;;;18.87;49.61;101964.53;1716629;83;21204;-77
2021/03/30 11:21:50;;;;;;;13.88;9.25;;;;;;;19.04;49.59;101957.91;1707229;83;22163;-77
2021/03/30 11:26:57;;;;;;;16.20;8.75;;;;;;;19.33;49.30;101949.78;1804506;77;22474;-78
2021/03/30 11:32:18;;;;;;;20.05;10.05;;;;;;;19.29;48.89;101950.34;1715952;83;22023;-78
2021/03/30 11:34:47;;;;;;;22.67;10.45;;;;;;;19.24;48.78;101945.52;1715709;83;21048;-78
2021/03/30 11:37:15;;;;;;;21.02;10.63;;;;;;;19.32;48.68;101946.73;1722299;82;21645;-78
2021/03/30 11:39:38;;;;;;;27.70;11.70;;;;;;;19.40;48.56;101938.52;1722021;82;21573;-78
2021/03/30 11:42:05;;;;;;;17.60;8.50;;;;;;;19.50;48.50;101940.95;1720917;82;21133;-78